Flight Track Log - Related Links

Times and Time Zones

All times are in EDT time to prevent confusion due to time zone crossing. See the SWA337 flight status page for this flight to view local times or setup timezone preferences in your user account.

Time Position Orientation Groundspeed Altitude Reporting Facility
EDT Latitude Longitude Course Direction KTS MPH feet Rate Location/Type
Sun 06:53:27 PM 31.8050 -106.3947 240° Southwest 165 190 4,600  Level Albuquerque Center
Sun 06:53:33 PM 31.8017 -106.4014 240° Southwest 170 196 5,100 2,294 Climbing Albuquerque Center
Sun 06:54:35 PM 31.7756 -106.4583 242° Southwest 216 249 7,200 2,780 Climbing Albuquerque Center
Sun 06:55:36 PM 31.7772 -106.5317 272° West 245 282 10,800 2,683 Climbing Albuquerque Center
Sun 06:56:38 PM 31.8339 -106.6361 303° West 333 383 12,700 2,537 Climbing Albuquerque Center
Sun 06:57:39 PM 31.8558 -106.7472 283° West 346 398 16,000 2,732 Climbing Albuquerque Center
Sun 06:58:41 PM 31.8756 -106.8631 281° West 359 413 18,300 2,419 Climbing Albuquerque Center
Sun 06:59:43 PM 31.8961 -106.9819 282° West 368 423 21,000 2,195 Climbing Albuquerque Center
Sun 07:00:44 PM 31.9164 -107.1022 281° West 371 427 22,800 1,561 Climbing Albuquerque Center
Sun 07:01:46 PM 31.9397 -107.2303 282° West 385 443 24,200 1,756 Climbing Albuquerque Center
Sun 07:02:47 PM 31.9608 -107.3619 281° West 402 463 26,400 2,000 Climbing Albuquerque Center
Sun 07:03:49 PM 31.9828 -107.4908 281° West 402 463 28,300 2,000 Climbing Albuquerque Center
Sun 07:04:50 PM 32.0033 -107.6167 281° West 395 455 30,500 2,098 Climbing Albuquerque Center
Sun 07:05:52 PM 32.0239 -107.7381 281° West 383 441 32,600 1,707 Climbing Albuquerque Center
Sun 07:06:53 PM 32.0464 -107.8767 281° West 364 419 34,000 683 Climbing Albuquerque Center
Sun 07:07:55 PM 32.0656 -107.9917 281° West 359 413 34,000  Level Albuquerque Center
Sun 07:08:56 PM 32.0853 -108.1067 281° West 358 412 34,000  Level Albuquerque Center
Sun 07:09:58 PM 32.1042 -108.2231 281° West 360 414 34,000  Level Albuquerque Center
Sun 07:11:00 PM 32.1222 -108.3425 280° West 367 422 34,000  Level Albuquerque Center
Sun 07:12:01 PM 32.1442 -108.4756 281° West 369 425 34,000  Level Albuquerque Center
Sun 07:13:03 PM 32.1636 -108.5967 281° West 373 429 34,000  Level Albuquerque Center
Sun 07:14:04 PM 32.1833 -108.7175 281° West 373 429 34,000  Level Albuquerque Center
Sun 07:15:06 PM 32.2025 -108.8381 281° West 375 432 34,000  Level Albuquerque Center
Sun 07:16:07 PM 32.2208 -108.9567 280° West 369 425 34,000  Level Albuquerque Center
Sun 07:17:09 PM 32.2392 -109.0744 280° West 366 421 34,000  Level Albuquerque Center
Sun 07:18:10 PM 32.2572 -109.1922 280° West 365 420 34,000  Level Albuquerque Center
Sun 07:19:12 PM 32.2789 -109.3100 282° West 365 420 34,000  Level Albuquerque Center
Sun 07:20:13 PM 32.3072 -109.4256 286° West 366 421 34,000  Level Albuquerque Center
Sun 07:21:15 PM 32.3414 -109.5633 286° West 364 419 34,000  Level Albuquerque Center
Sun 07:22:16 PM 32.3678 -109.6775 285° West 362 417 34,000  Level Albuquerque Center
Sun 07:23:18 PM 32.3981 -109.7964 287° West 372 428 34,000  Level Albuquerque Center
Sun 07:24:19 PM 32.4272 -109.9128 287° West 371 427 34,000  Level Albuquerque Center
Sun 07:25:21 PM 32.4553 -110.0289 286° West 368 423 34,000  Level Albuquerque Center
Sun 07:26:22 PM 32.4819 -110.1447 285° West 365 420 34,000 -976 Level Albuquerque Center
Sun 07:27:24 PM 32.5097 -110.2606 286° West 366 421 32,000 -2,758 Descending Albuquerque Center
Sun 07:28:26 PM 32.5406 -110.3894 286° West 373 429 28,300 -3,073 Descending Albuquerque Center
Sun 07:29:27 PM 32.5669 -110.5064 285° West 371 427 25,700 -2,098 Descending Albuquerque Center
Sun 07:30:29 PM 32.5983 -110.6156 289° West 356 410 24,000 -829 Descending Albuquerque Center
Sun 07:31:30 PM 32.6542 -110.7125 304° West 355 409 24,000  Level Albuquerque Center
Sun 07:32:32 PM 32.7094 -110.8158 302° West 366 421 24,000  Level Albuquerque Center
Sun 07:33:33 PM 32.7742 -110.9336 303° West 357 411 24,000 -976 Level Albuquerque Center
Sun 07:34:35 PM 32.8211 -111.0269 301° West 336 387 22,000 -1,902 Descending Albuquerque Center
Sun 07:35:36 PM 32.8556 -111.1208 294° West 317 365 20,100 -1,854 Descending Albuquerque Center
Sun 07:36:38 PM 32.8678 -111.2189 278° West 301 346 18,200 -1,512 Descending Albuquerque Center
Sun 07:37:39 PM 32.9244 -111.2908 313° West 297 342 17,000 -1,463 Descending Albuquerque Center
Sun 07:38:41 PM 32.9814 -111.3722 310° West 317 365 15,200 -1,790 Descending Albuquerque Center
Sun 07:39:43 PM 33.0322 -111.4600 305° West 320 368 13,300 -1,854 Descending Albuquerque Center
Sun 07:40:44 PM 33.0764 -111.5481 301° West 311 358 11,400 -1,805 Descending Albuquerque Center
Sun 07:41:46 PM 33.1658 -111.6086 330° Northwest 311 358 9,600 -1,171 Descending Albuquerque Center
Sun 07:42:47 PM 33.2389 -111.6497 335° Northwest 292 336 9,000 -780 Descending Albuquerque Center
Sun 07:43:49 PM 33.3039 -111.6883 334° Northwest 264 304 8,000 -1,073 Descending Albuquerque Center
Sun 07:44:50 PM 33.3567 -111.7444 318° Northwest 262 302 6,800 -1,561 Descending Albuquerque Center
Sun 07:45:52 PM 33.3944 -111.8142 303° West 251 289 4,800 -1,756 Descending Albuquerque Center
Sun 07:46:53 PM 33.4283 -111.8772 303° West 232 267 3,200 -1,317 Descending Albuquerque Center
Sun 07:47:55 PM 33.4306 -111.9331 273° West 173 199 2,100 -878 Descending Albuquerque Center
Sun 07:48:56 PM 33.4314 -111.9792 271° West 143 165 1,400 -689 Descending Albuquerque Center
Sun 07:50:00 PM 33.4343 -112.0116 270° West  Level Estimated
Sun 07:57:00 PM 33.4343 -112.0116 40° Northeast  Level Estimated

Login

Don't have an account? Register now (free) for customized features, flight alerts, and more!